sensor_id;sensor_type;location;lat;lon;timestamp;pressure;altitude;pressure_sealevel;temperature;humidity
73624;BME280;61921;53.226;-1.296;2023-07-29T00:00:47;99130.60;;;18.30;86.95
73624;BME280;61921;53.226;-1.296;2023-07-29T00:03:12;99132.69;;;18.25;86.42
73624;BME280;61921;53.226;-1.296;2023-07-29T00:05:38;99137.19;;;18.26;86.28
73624;BME280;61921;53.226;-1.296;2023-07-29T00:08:02;99133.20;;;18.35;85.55
73624;BME280;61921;53.226;-1.296;2023-07-29T00:10:28;99129.42;;;18.47;85.06
73624;BME280;61921;53.226;-1.296;2023-07-29T00:12:53;99130.67;;;18.52;84.90
73624;BME280;61921;53.226;-1.296;2023-07-29T00:15:18;99131.85;;;18.52;84.08
73624;BME280;61921;53.226;-1.296;2023-07-29T00:17:43;99136.34;;;18.50;84.00
73624;BME280;61921;53.226;-1.296;2023-07-29T00:20:08;99131.60;;;18.49;83.81
73624;BME280;61921;53.226;-1.296;2023-07-29T00:22:33;99131.16;;;18.60;83.68
73624;BME280;61921;53.226;-1.296;2023-07-29T00:24:58;99128.43;;;18.57;83.85
73624;BME280;61921;53.226;-1.296;2023-07-29T00:27:23;99124.35;;;18.46;84.38
73624;BME280;61921;53.226;-1.296;2023-07-29T00:29:49;99123.11;;;18.38;85.14
73624;BME280;61921;53.226;-1.296;2023-07-29T00:32:14;99128.70;;;18.41;85.48
73624;BME280;61921;53.226;-1.296;2023-07-29T00:34:39;99128.07;;;18.40;85.74
73624;BME280;61921;53.226;-1.296;2023-07-29T00:37:04;99128.35;;;18.48;85.57
73624;BME280;61921;53.226;-1.296;2023-07-29T00:39:29;99131.12;;;18.29;85.37
73624;BME280;61921;53.226;-1.296;2023-07-29T00:41:55;99129.75;;;17.93;85.67
73624;BME280;61921;53.226;-1.296;2023-07-29T00:44:20;99132.55;;;18.10;85.33
73624;BME280;61921;53.226;-1.296;2023-07-29T00:46:46;99124.31;;;18.26;85.65
73624;BME280;61921;53.226;-1.296;2023-07-29T00:49:10;99123.27;;;18.41;86.66
73624;BME280;61921;53.226;-1.296;2023-07-29T00:51:35;99122.24;;;18.37;87.58
73624;BME280;61921;53.226;-1.296;2023-07-29T00:54:00;99118.01;;;18.35;88.62
73624;BME280;61921;53.226;-1.296;2023-07-29T00:56:25;99120.72;;;18.25;89.13
73624;BME280;61921;53.226;-1.296;2023-07-29T00:58:51;99119.92;;;18.29;88.82
73624;BME280;61921;53.226;-1.296;2023-07-29T01:01:16;99119.63;;;18.20;89.54
73624;BME280;61921;53.226;-1.296;2023-07-29T01:03:41;99119.18;;;18.13;89.27
73624;BME280;61921;53.226;-1.296;2023-07-29T01:06:14;99114.04;;;18.08;89.52
73624;BME280;61921;53.226;-1.296;2023-07-29T01:08:37;99110.85;;;18.05;89.95
73624;BME280;61921;53.226;-1.296;2023-07-29T01:11:03;99111.11;;;18.04;89.96
73624;BME280;61921;53.226;-1.296;2023-07-29T01:13:26;99110.57;;;17.88;90.20
73624;BME280;61921;53.226;-1.296;2023-07-29T01:15:52;99112.36;;;17.90;90.54
73624;BME280;61921;53.226;-1.296;2023-07-29T01:18:18;99108.30;;;17.85;90.36
73624;BME280;61921;53.226;-1.296;2023-07-29T01:20:39;99103.88;;;17.82;90.55
73624;BME280;61921;53.226;-1.296;2023-07-29T01:23:02;99095.76;;;17.75;90.84
73624;BME280;61921;53.226;-1.296;2023-07-29T01:25:27;99097.24;;;17.72;91.14
73624;BME280;61921;53.226;-1.296;2023-07-29T01:27:53;99092.87;;;17.55;91.24
73624;BME280;61921;53.226;-1.296;2023-07-29T01:30:18;99092.92;;;17.47;91.41
73624;BME280;61921;53.226;-1.296;2023-07-29T01:32:46;99093.91;;;17.47;91.03
73624;BME280;61921;53.226;-1.296;2023-07-29T01:35:15;99093.31;;;17.42;91.17
73624;BME280;61921;53.226;-1.296;2023-07-29T01:37:35;99093.86;;;17.43;91.19
73624;BME280;61921;53.226;-1.296;2023-07-29T01:40:00;99090.09;;;17.45;91.01
73624;BME280;61921;53.226;-1.296;2023-07-29T01:42:24;99094.07;;;17.46;90.93
73624;BME280;61921;53.226;-1.296;2023-07-29T01:44:49;99095.39;;;17.33;91.30
73624;BME280;61921;53.226;-1.296;2023-07-29T01:47:14;99096.38;;;17.40;91.32
73624;BME280;61921;53.226;-1.296;2023-07-29T01:49:39;99097.62;;;17.41;91.51
73624;BME280;61921;53.226;-1.296;2023-07-29T01:52:05;99102.94;;;17.38;91.55
73624;BME280;61921;53.226;-1.296;2023-07-29T01:54:30;99103.94;;;17.31;91.80
73624;BME280;61921;53.226;-1.296;2023-07-29T01:56:55;99100.37;;;17.25;92.33
73624;BME280;61921;53.226;-1.296;2023-07-29T01:59:20;99095.28;;;17.02;92.77
73624;BME280;61921;53.226;-1.296;2023-07-29T02:01:45;99097.98;;;17.04;93.07
73624;BME280;61921;53.226;-1.296;2023-07-29T02:04:10;99090.14;;;16.96;93.30
73624;BME280;61921;53.226;-1.296;2023-07-29T02:06:36;99097.49;;;17.04;93.45
73624;BME280;61921;53.226;-1.296;2023-07-29T02:09:01;99094.51;;;17.00;93.71
73624;BME280;61921;53.226;-1.296;2023-07-29T02:11:26;99098.44;;;16.95;93.79
73624;BME280;61921;53.226;-1.296;2023-07-29T02:13:51;99095.74;;;17.04;93.05
73624;BME280;61921;53.226;-1.296;2023-07-29T02:16:16;99093.39;;;16.97;93.32
73624;BME280;61921;53.226;-1.296;2023-07-29T02:18:42;99094.75;;;16.94;93.45
73624;BME280;61921;53.226;-1.296;2023-07-29T02:21:07;99092.79;;;16.83;93.54
73624;BME280;61921;53.226;-1.296;2023-07-29T02:23:32;99093.20;;;16.78;93.73
73624;BME280;61921;53.226;-1.296;2023-07-29T02:25:57;99092.92;;;16.84;93.46
73624;BME280;61921;53.226;-1.296;2023-07-29T02:28:23;99090.51;;;16.78;93.46
73624;BME280;61921;53.226;-1.296;2023-07-29T02:33:13;99090.16;;;16.76;92.98
73624;BME280;61921;53.226;-1.296;2023-07-29T02:35:38;99083.54;;;16.80;92.42
73624;BME280;61921;53.226;-1.296;2023-07-29T02:38:03;99082.41;;;16.86;92.11
73624;BME280;61921;53.226;-1.296;2023-07-29T02:40:28;99083.70;;;16.95;91.75
73624;BME280;61921;53.226;-1.296;2023-07-29T02:42:54;99077.15;;;16.90;90.88
73624;BME280;61921;53.226;-1.296;2023-07-29T02:45:20;99066.89;;;16.95;91.42
73624;BME280;61921;53.226;-1.296;2023-07-29T02:47:44;99066.02;;;16.94;91.12
73624;BME280;61921;53.226;-1.296;2023-07-29T02:50:09;99069.32;;;16.92;91.34
73624;BME280;61921;53.226;-1.296;2023-07-29T02:52:34;99064.98;;;16.87;91.68
73624;BME280;61921;53.226;-1.296;2023-07-29T02:55:00;99065.05;;;16.90;91.68
73624;BME280;61921;53.226;-1.296;2023-07-29T02:57:25;99060.53;;;16.93;91.33
73624;BME280;61921;53.226;-1.296;2023-07-29T02:59:50;99054.80;;;16.95;91.21
73624;BME280;61921;53.226;-1.296;2023-07-29T03:02:15;99056.01;;;16.81;91.84
73624;BME280;61921;53.226;-1.296;2023-07-29T03:04:40;99058.98;;;16.99;91.17
73624;BME280;61921;53.226;-1.296;2023-07-29T03:07:06;99063.47;;;16.97;90.73
73624;BME280;61921;53.226;-1.296;2023-07-29T03:09:31;99060.57;;;16.97;90.37
73624;BME280;61921;53.226;-1.296;2023-07-29T03:11:56;99059.95;;;16.95;89.92
73624;BME280;61921;53.226;-1.296;2023-07-29T03:14:21;99056.52;;;16.82;89.46
73624;BME280;61921;53.226;-1.296;2023-07-29T03:16:47;99054.90;;;16.92;89.36
73624;BME280;61921;53.226;-1.296;2023-07-29T03:19:12;99056.01;;;16.96;88.64
73624;BME280;61921;53.226;-1.296;2023-07-29T03:21:37;99054.57;;;16.88;88.27
73624;BME280;61921;53.226;-1.296;2023-07-29T03:24:02;99061.15;;;16.96;88.14
73624;BME280;61921;53.226;-1.296;2023-07-29T03:26:27;99065.12;;;16.96;87.82
73624;BME280;61921;53.226;-1.296;2023-07-29T03:28:53;99068.34;;;16.91;87.31
73624;BME280;61921;53.226;-1.296;2023-07-29T03:31:18;99069.19;;;16.79;87.96
73624;BME280;61921;53.226;-1.296;2023-07-29T03:33:43;99071.04;;;16.81;88.15
73624;BME280;61921;53.226;-1.296;2023-07-29T03:36:08;99072.72;;;16.80;88.02
73624;BME280;61921;53.226;-1.296;2023-07-29T03:38:34;99074.81;;;16.90;87.88
73624;BME280;61921;53.226;-1.296;2023-07-29T03:40:59;99075.70;;;16.78;88.47
73624;BME280;61921;53.226;-1.296;2023-07-29T03:43:24;99074.59;;;16.68;89.31
73624;BME280;61921;53.226;-1.296;2023-07-29T03:45:49;99070.67;;;16.57;89.93
73624;BME280;61921;53.226;-1.296;2023-07-29T03:48:14;99071.80;;;16.54;90.11
73624;BME280;61921;53.226;-1.296;2023-07-29T03:50:40;99067.99;;;16.42;90.64
73624;BME280;61921;53.226;-1.296;2023-07-29T03:53:05;99062.20;;;16.35;91.11
73624;BME280;61921;53.226;-1.296;2023-07-29T03:55:31;99059.16;;;16.29;91.58
73624;BME280;61921;53.226;-1.296;2023-07-29T03:57:56;99057.20;;;16.07;92.42
73624;BME280;61921;53.226;-1.296;2023-07-29T04:00:21;99060.03;;;16.10;92.60
73624;BME280;61921;53.226;-1.296;2023-07-29T04:02:46;99061.07;;;16.13;92.43
73624;BME280;61921;53.226;-1.296;2023-07-29T04:05:11;99064.96;;;16.10;92.38
73624;BME280;61921;53.226;-1.296;2023-07-29T04:07:37;99062.47;;;16.06;92.33
73624;BME280;61921;53.226;-1.296;2023-07-29T04:10:02;99061.55;;;16.02;92.55
73624;BME280;61921;53.226;-1.296;2023-07-29T04:12:27;99065.94;;;15.90;91.87
73624;BME280;61921;53.226;-1.296;2023-07-29T04:14:52;99064.93;;;15.94;91.70
73624;BME280;61921;53.226;-1.296;2023-07-29T04:17:17;99066.58;;;15.86;92.01
73624;BME280;61921;53.226;-1.296;2023-07-29T04:19:43;99069.79;;;15.94;91.48
73624;BME280;61921;53.226;-1.296;2023-07-29T04:22:08;99060.43;;;16.03;90.49
73624;BME280;61921;53.226;-1.296;2023-07-29T04:24:33;99066.98;;;16.07;90.58
73624;BME280;61921;53.226;-1.296;2023-07-29T04:26:58;99071.51;;;16.09;90.34
73624;BME280;61921;53.226;-1.296;2023-07-29T04:29:24;99070.10;;;16.22;89.50
73624;BME280;61921;53.226;-1.296;2023-07-29T04:31:49;99069.17;;;16.28;88.71
73624;BME280;61921;53.226;-1.296;2023-07-29T04:34:14;99069.11;;;16.30;88.26
73624;BME280;61921;53.226;-1.296;2023-07-29T04:36:40;99071.08;;;16.36;88.05
73624;BME280;61921;53.226;-1.296;2023-07-29T04:39:05;99070.14;;;16.30;87.76
73624;BME280;61921;53.226;-1.296;2023-07-29T04:41:30;99073.18;;;16.21;88.12
73624;BME280;61921;53.226;-1.296;2023-07-29T04:43:55;99077.85;;;16.20;88.11
73624;BME280;61921;53.226;-1.296;2023-07-29T04:46:21;99080.53;;;16.18;87.93
73624;BME280;61921;53.226;-1.296;2023-07-29T04:48:46;99079.85;;;16.18;88.24
73624;BME280;61921;53.226;-1.296;2023-07-29T04:51:11;99080.58;;;16.33;87.12
73624;BME280;61921;53.226;-1.296;2023-07-29T04:53:36;99083.38;;;16.43;87.01
73624;BME280;61921;53.226;-1.296;2023-07-29T04:56:02;99086.64;;;16.56;86.92
73624;BME280;61921;53.226;-1.296;2023-07-29T04:58:27;99083.00;;;16.58;86.18
73624;BME280;61921;53.226;-1.296;2023-07-29T05:00:53;99077.40;;;16.60;86.09
73624;BME280;61921;53.226;-1.296;2023-07-29T05:03:17;99079.50;;;16.48;86.34
73624;BME280;61921;53.226;-1.296;2023-07-29T05:05:42;99080.68;;;16.47;86.36
73624;BME280;61921;53.226;-1.296;2023-07-29T05:08:08;99082.81;;;16.51;86.63
73624;BME280;61921;53.226;-1.296;2023-07-29T05:10:34;99081.69;;;16.36;86.94
73624;BME280;61921;53.226;-1.296;2023-07-29T05:12:58;99086.10;;;16.50;86.74
73624;BME280;61921;53.226;-1.296;2023-07-29T05:15:24;99085.00;;;16.44;86.34
73624;BME280;61921;53.226;-1.296;2023-07-29T05:17:49;99083.39;;;16.28;87.12
73624;BME280;61921;53.226;-1.296;2023-07-29T05:20:14;99084.47;;;16.37;86.93
73624;BME280;61921;53.226;-1.296;2023-07-29T05:22:39;99086.37;;;16.44;87.02
73624;BME280;61921;53.226;-1.296;2023-07-29T05:25:05;99080.21;;;16.38;86.77
73624;BME280;61921;53.226;-1.296;2023-07-29T05:27:30;99079.45;;;16.34;87.19
73624;BME280;61921;53.226;-1.296;2023-07-29T05:29:55;99081.10;;;16.45;86.72
73624;BME280;61921;53.226;-1.296;2023-07-29T05:32:20;99083.66;;;16.58;86.42
73624;BME280;61921;53.226;-1.296;2023-07-29T05:34:45;99087.71;;;16.65;86.66
73624;BME280;61921;53.226;-1.296;2023-07-29T05:37:10;99086.08;;;16.82;85.91
73624;BME280;61921;53.226;-1.296;2023-07-29T05:39:35;99085.33;;;16.89;84.90
73624;BME280;61921;53.226;-1.296;2023-07-29T05:42:01;99084.30;;;16.86;84.97
73624;BME280;61921;53.226;-1.296;2023-07-29T05:44:26;99085.80;;;17.02;84.37
73624;BME280;61921;53.226;-1.296;2023-07-29T05:46:51;99086.59;;;16.92;85.07
73624;BME280;61921;53.226;-1.296;2023-07-29T05:49:16;99086.55;;;17.03;84.94
73624;BME280;61921;53.226;-1.296;2023-07-29T05:51:42;99085.97;;;17.05;84.60
73624;BME280;61921;53.226;-1.296;2023-07-29T05:54:07;99088.27;;;17.14;84.78
73624;BME280;61921;53.226;-1.296;2023-07-29T05:56:32;99083.66;;;17.16;84.33
73624;BME280;61921;53.226;-1.296;2023-07-29T05:58:57;99075.12;;;17.16;84.34
73624;BME280;61921;53.226;-1.296;2023-07-29T06:01:23;99079.55;;;17.35;84.02
73624;BME280;61921;53.226;-1.296;2023-07-29T06:03:48;99087.74;;;17.38;83.70
73624;BME280;61921;53.226;-1.296;2023-07-29T06:06:13;99084.41;;;17.34;84.28
73624;BME280;61921;53.226;-1.296;2023-07-29T06:08:38;99083.69;;;17.27;84.66
73624;BME280;61921;53.226;-1.296;2023-07-29T06:11:03;99088.34;;;17.40;84.10
73624;BME280;61921;53.226;-1.296;2023-07-29T06:13:29;99093.88;;;17.64;83.72
73624;BME280;61921;53.226;-1.296;2023-07-29T06:15:54;99091.12;;;17.62;83.31
73624;BME280;61921;53.226;-1.296;2023-07-29T06:18:19;99093.11;;;17.84;82.24
73624;BME280;61921;53.226;-1.296;2023-07-29T06:20:44;99094.91;;;17.93;81.67
73624;BME280;61921;53.226;-1.296;2023-07-29T06:23:10;99096.84;;;17.75;82.02
73624;BME280;61921;53.226;-1.296;2023-07-29T06:25:35;99100.86;;;17.62;82.95
73624;BME280;61921;53.226;-1.296;2023-07-29T06:28:00;99096.63;;;17.59;82.75
73624;BME280;61921;53.226;-1.296;2023-07-29T06:30:25;99098.40;;;17.46;83.35
73624;BME280;61921;53.226;-1.296;2023-07-29T06:32:50;99097.09;;;17.59;82.95
73624;BME280;61921;53.226;-1.296;2023-07-29T06:35:16;99087.05;;;17.62;82.82
73624;BME280;61921;53.226;-1.296;2023-07-29T06:37:41;99090.36;;;17.63;82.40
73624;BME280;61921;53.226;-1.296;2023-07-29T06:40:07;99089.04;;;17.66;82.79
73624;BME280;61921;53.226;-1.296;2023-07-29T06:42:31;99097.01;;;17.59;82.85
73624;BME280;61921;53.226;-1.296;2023-07-29T06:44:57;99096.24;;;17.42;83.64
73624;BME280;61921;53.226;-1.296;2023-07-29T06:47:21;99090.25;;;17.19;84.65
73624;BME280;61921;53.226;-1.296;2023-07-29T06:49:47;99090.44;;;17.23;85.30
73624;BME280;61921;53.226;-1.296;2023-07-29T06:52:12;99087.30;;;17.31;84.99
73624;BME280;61921;53.226;-1.296;2023-07-29T06:54:37;99087.29;;;17.04;86.12
73624;BME280;61921;53.226;-1.296;2023-07-29T06:57:03;99092.94;;;17.27;86.30
73624;BME280;61921;53.226;-1.296;2023-07-29T06:59:28;99092.82;;;17.27;85.96
73624;BME280;61921;53.226;-1.296;2023-07-29T07:01:53;99095.18;;;17.61;84.98
73624;BME280;61921;53.226;-1.296;2023-07-29T07:04:18;99097.82;;;17.68;84.29
73624;BME280;61921;53.226;-1.296;2023-07-29T07:06:44;99101.71;;;17.73;83.50
73624;BME280;61921;53.226;-1.296;2023-07-29T07:09:09;99096.61;;;17.69;82.91
73624;BME280;61921;53.226;-1.296;2023-07-29T07:11:34;99092.95;;;18.26;81.63
73624;BME280;61921;53.226;-1.296;2023-07-29T07:13:59;99093.63;;;18.35;80.91
73624;BME280;61921;53.226;-1.296;2023-07-29T07:16:25;99093.54;;;18.42;80.26
73624;BME280;61921;53.226;-1.296;2023-07-29T07:18:50;99091.53;;;18.66;78.97
73624;BME280;61921;53.226;-1.296;2023-07-29T07:21:15;99092.19;;;18.71;78.46
73624;BME280;61921;53.226;-1.296;2023-07-29T07:23:40;99087.75;;;18.84;78.45
73624;BME280;61921;53.226;-1.296;2023-07-29T07:26:05;99084.09;;;18.77;78.16
73624;BME280;61921;53.226;-1.296;2023-07-29T07:28:31;99083.40;;;18.94;77.62
73624;BME280;61921;53.226;-1.296;2023-07-29T07:30:58;99080.69;;;18.99;78.05
73624;BME280;61921;53.226;-1.296;2023-07-29T07:33:22;99082.36;;;19.02;76.76
73624;BME280;61921;53.226;-1.296;2023-07-29T07:35:46;99087.35;;;19.35;75.06
73624;BME280;61921;53.226;-1.296;2023-07-29T07:38:11;99094.40;;;19.94;73.06
73624;BME280;61921;53.226;-1.296;2023-07-29T07:40:36;99095.90;;;19.71;73.37
73624;BME280;61921;53.226;-1.296;2023-07-29T07:43:02;99089.88;;;19.63;73.03
73624;BME280;61921;53.226;-1.296;2023-07-29T07:45:27;99092.35;;;20.20;72.29
73624;BME280;61921;53.226;-1.296;2023-07-29T07:47:52;99096.48;;;20.69;70.99
73624;BME280;61921;53.226;-1.296;2023-07-29T07:50:17;99098.80;;;20.66;69.27
73624;BME280;61921;53.226;-1.296;2023-07-29T07:52:42;99099.36;;;20.47;69.28
73624;BME280;61921;53.226;-1.296;2023-07-29T07:55:08;99103.65;;;20.20;71.94
73624;BME280;61921;53.226;-1.296;2023-07-29T07:57:32;99109.25;;;20.00;71.00
73624;BME280;61921;53.226;-1.296;2023-07-29T07:59:58;99109.69;;;19.74;71.67
73624;BME280;61921;53.226;-1.296;2023-07-29T08:02:23;99110.59;;;19.61;71.31
73624;BME280;61921;53.226;-1.296;2023-07-29T08:04:47;99108.99;;;19.79;71.02
73624;BME280;61921;53.226;-1.296;2023-07-29T08:07:13;99114.31;;;19.92;71.53
73624;BME280;61921;53.226;-1.296;2023-07-29T08:09:38;99110.72;;;19.64;72.13
73624;BME280;61921;53.226;-1.296;2023-07-29T08:12:04;99114.36;;;19.61;72.82
73624;BME280;61921;53.226;-1.296;2023-07-29T08:14:28;99109.15;;;19.77;72.36
73624;BME280;61921;53.226;-1.296;2023-07-29T08:16:54;99108.98;;;19.77;71.91
73624;BME280;61921;53.226;-1.296;2023-07-29T08:19:19;99102.97;;;19.98;70.61
73624;BME280;61921;53.226;-1.296;2023-07-29T08:21:44;99102.10;;;20.57;68.78
73624;BME280;61921;53.226;-1.296;2023-07-29T08:24:09;99097.93;;;20.40;68.14
73624;BME280;61921;53.226;-1.296;2023-07-29T08:26:35;99094.45;;;20.16;68.52
73624;BME280;61921;53.226;-1.296;2023-07-29T08:28:59;99102.30;;;20.70;67.36
73624;BME280;61921;53.226;-1.296;2023-07-29T08:31:24;99094.28;;;20.82;65.42
73624;BME280;61921;53.226;-1.296;2023-07-29T08:33:49;99097.67;;;20.89;65.24
73624;BME280;61921;53.226;-1.296;2023-07-29T08:36:14;99094.05;;;20.94;66.20
73624;BME280;61921;53.226;-1.296;2023-07-29T08:38:40;99088.09;;;20.48;65.10
73624;BME280;61921;53.226;-1.296;2023-07-29T08:41:10;99093.24;;;20.49;65.60
73624;BME280;61921;53.226;-1.296;2023-07-29T08:43:30;99093.82;;;20.36;65.89
73624;BME280;61921;53.226;-1.296;2023-07-29T08:45:55;99094.54;;;20.37;65.03
73624;BME280;61921;53.226;-1.296;2023-07-29T08:48:26;99095.05;;;20.16;64.19
73624;BME280;61921;53.226;-1.296;2023-07-29T08:50:45;99096.25;;;20.45;65.70
73624;BME280;61921;53.226;-1.296;2023-07-29T08:53:10;99095.74;;;20.85;65.05
73624;BME280;61921;53.226;-1.296;2023-07-29T08:55:35;99107.99;;;21.53;61.76
73624;BME280;61921;53.226;-1.296;2023-07-29T08:58:00;99110.54;;;21.37;60.10
73624;BME280;61921;53.226;-1.296;2023-07-29T09:00:25;99102.70;;;20.81;59.51
73624;BME280;61921;53.226;-1.296;2023-07-29T09:02:50;99111.58;;;20.60;59.92
73624;BME280;61921;53.226;-1.296;2023-07-29T09:05:16;99112.19;;;20.36;58.57
73624;BME280;61921;53.226;-1.296;2023-07-29T09:07:41;99111.40;;;19.69;60.46
73624;BME280;61921;53.226;-1.296;2023-07-29T09:10:09;99103.53;;;19.75;60.74
73624;BME280;61921;53.226;-1.296;2023-07-29T09:12:30;99103.37;;;19.80;61.50
73624;BME280;61921;53.226;-1.296;2023-07-29T09:14:56;99106.70;;;20.06;62.13
73624;BME280;61921;53.226;-1.296;2023-07-29T09:17:21;99096.06;;;20.43;62.26
73624;BME280;61921;53.226;-1.296;2023-07-29T09:19:48;99093.64;;;20.73;62.00
73624;BME280;61921;53.226;-1.296;2023-07-29T09:22:18;99093.88;;;21.06;60.05
73624;BME280;61921;53.226;-1.296;2023-07-29T09:24:36;99092.55;;;20.86;59.33
73624;BME280;61921;53.226;-1.296;2023-07-29T09:27:01;99092.12;;;21.33;60.68
73624;BME280;61921;53.226;-1.296;2023-07-29T09:29:28;99089.70;;;22.13;57.65
73624;BME280;61921;53.226;-1.296;2023-07-29T09:31:51;99093.74;;;22.45;56.31
73624;BME280;61921;53.226;-1.296;2023-07-29T09:34:16;99096.37;;;22.43;55.29
73624;BME280;61921;53.226;-1.296;2023-07-29T09:36:41;99091.78;;;22.51;55.28
73624;BME280;61921;53.226;-1.296;2023-07-29T09:39:11;99095.13;;;22.79;54.00
73624;BME280;61921;53.226;-1.296;2023-07-29T09:41:31;99091.88;;;22.22;56.29
73624;BME280;61921;53.226;-1.296;2023-07-29T09:43:57;99093.63;;;22.83;55.82
73624;BME280;61921;53.226;-1.296;2023-07-29T09:46:24;99094.50;;;22.76;55.55
73624;BME280;61921;53.226;-1.296;2023-07-29T09:48:46;99094.52;;;22.29;54.73
73624;BME280;61921;53.226;-1.296;2023-07-29T09:51:12;99093.41;;;22.10;55.11
73624;BME280;61921;53.226;-1.296;2023-07-29T09:53:40;99089.13;;;22.00;55.93
73624;BME280;61921;53.226;-1.296;2023-07-29T09:56:03;99094.66;;;21.70;55.51
73624;BME280;61921;53.226;-1.296;2023-07-29T09:58:27;99092.65;;;21.52;54.71
73624;BME280;61921;53.226;-1.296;2023-07-29T10:00:52;99095.03;;;22.39;54.77
73624;BME280;61921;53.226;-1.296;2023-07-29T10:03:17;99098.22;;;22.66;52.73
73624;BME280;61921;53.226;-1.296;2023-07-29T10:05:42;99099.95;;;22.83;51.60
73624;BME280;61921;53.226;-1.296;2023-07-29T10:08:07;99099.03;;;22.79;51.75
73624;BME280;61921;53.226;-1.296;2023-07-29T10:10:32;99101.26;;;22.92;52.39
73624;BME280;61921;53.226;-1.296;2023-07-29T10:12:57;99103.43;;;21.94;50.54
73624;BME280;61921;53.226;-1.296;2023-07-29T10:15:22;99106.57;;;21.48;52.38
73624;BME280;61921;53.226;-1.296;2023-07-29T10:17:47;99105.52;;;20.59;54.48
73624;BME280;61921;53.226;-1.296;2023-07-29T10:20:12;99102.00;;;20.51;54.81
73624;BME280;61921;53.226;-1.296;2023-07-29T10:22:38;99107.35;;;20.75;55.94
73624;BME280;61921;53.226;-1.296;2023-07-29T10:25:05;99105.69;;;20.92;56.00
73624;BME280;61921;53.226;-1.296;2023-07-29T10:27:28;99106.73;;;20.95;56.62
73624;BME280;61921;53.226;-1.296;2023-07-29T10:29:55;99108.99;;;21.22;57.26
73624;BME280;61921;53.226;-1.296;2023-07-29T10:32:17;99115.52;;;21.47;58.05
73624;BME280;61921;53.226;-1.296;2023-07-29T10:34:43;99109.17;;;21.31;59.34
73624;BME280;61921;53.226;-1.296;2023-07-29T10:37:08;99109.37;;;21.54;60.13
73624;BME280;61921;53.226;-1.296;2023-07-29T10:39:38;99112.87;;;21.67;59.83
73624;BME280;61921;53.226;-1.296;2023-07-29T10:41:59;99112.75;;;21.30;61.80
73624;BME280;61921;53.226;-1.296;2023-07-29T10:46:48;99131.44;;;20.99;65.72
73624;BME280;61921;53.226;-1.296;2023-07-29T10:49:13;99154.59;;;20.01;68.67
73624;BME280;61921;53.226;-1.296;2023-07-29T10:51:38;99160.49;;;18.86;73.96
73624;BME280;61921;53.226;-1.296;2023-07-29T10:54:10;99179.69;;;18.46;76.43
73624;BME280;61921;53.226;-1.296;2023-07-29T10:56:30;99174.33;;;17.84;81.54
73624;BME280;61921;53.226;-1.296;2023-07-29T10:58:55;99162.04;;;17.84;82.47
73624;BME280;61921;53.226;-1.296;2023-07-29T11:01:27;99155.45;;;18.02;81.44
73624;BME280;61921;53.226;-1.296;2023-07-29T11:06:09;99147.82;;;18.55;81.09
73624;BME280;61921;53.226;-1.296;2023-07-29T11:08:35;99146.58;;;19.02;76.23
73624;BME280;61921;53.226;-1.296;2023-07-29T11:11:02;99145.62;;;19.11;72.15
73624;BME280;61921;53.226;-1.296;2023-07-29T11:13:26;99147.86;;;19.46;70.45
73624;BME280;61921;53.226;-1.296;2023-07-29T11:15:50;99152.26;;;19.99;72.09
73624;BME280;61921;53.226;-1.296;2023-07-29T11:18:14;99150.04;;;20.12;66.40
73624;BME280;61921;53.226;-1.296;2023-07-29T11:20:39;99151.03;;;20.19;66.32
73624;BME280;61921;53.226;-1.296;2023-07-29T11:23:05;99149.91;;;20.90;65.55
73624;BME280;61921;53.226;-1.296;2023-07-29T11:25:30;99148.65;;;20.99;62.66
73624;BME280;61921;53.226;-1.296;2023-07-29T11:27:56;99143.50;;;20.81;60.41
73624;BME280;61921;53.226;-1.296;2023-07-29T11:30:20;99141.00;;;20.75;59.75
73624;BME280;61921;53.226;-1.296;2023-07-29T11:32:46;99150.59;;;20.93;60.08
73624;BME280;61921;53.226;-1.296;2023-07-29T11:35:11;99149.11;;;21.16;58.28
73624;BME280;61921;53.226;-1.296;2023-07-29T11:37:35;99140.55;;;21.30;59.88
73624;BME280;61921;53.226;-1.296;2023-07-29T11:40:00;99140.74;;;21.57;57.86
73624;BME280;61921;53.226;-1.296;2023-07-29T11:42:26;99138.68;;;21.85;54.71
73624;BME280;61921;53.226;-1.296;2023-07-29T11:44:50;99143.31;;;21.92;53.50
73624;BME280;61921;53.226;-1.296;2023-07-29T11:47:15;99149.60;;;21.86;53.14
73624;BME280;61921;53.226;-1.296;2023-07-29T11:49:40;99149.58;;;22.18;53.89
73624;BME280;61921;53.226;-1.296;2023-07-29T11:52:07;99145.49;;;22.50;52.25
73624;BME280;61921;53.226;-1.296;2023-07-29T11:54:30;99145.76;;;22.78;50.80
73624;BME280;61921;53.226;-1.296;2023-07-29T11:56:55;99147.93;;;22.78;50.73
73624;BME280;61921;53.226;-1.296;2023-07-29T11:59:20;99148.58;;;22.40;50.76
73624;BME280;61921;53.226;-1.296;2023-07-29T12:01:45;99148.24;;;22.47;51.37
73624;BME280;61921;53.226;-1.296;2023-07-29T12:04:10;99143.37;;;22.93;51.19
73624;BME280;61921;53.226;-1.296;2023-07-29T12:06:35;99138.71;;;23.23;50.08
73624;BME280;61921;53.226;-1.296;2023-07-29T12:09:00;99133.76;;;23.48;49.69
73624;BME280;61921;53.226;-1.296;2023-07-29T12:11:25;99143.06;;;23.20;47.76
73624;BME280;61921;53.226;-1.296;2023-07-29T12:13:53;99141.38;;;22.74;49.13
73624;BME280;61921;53.226;-1.296;2023-07-29T12:16:16;99139.42;;;22.90;49.50
73624;BME280;61921;53.226;-1.296;2023-07-29T12:18:41;99142.75;;;22.95;48.42
73624;BME280;61921;53.226;-1.296;2023-07-29T12:21:05;99141.62;;;23.10;48.32
73624;BME280;61921;53.226;-1.296;2023-07-29T12:23:30;99138.82;;;23.35;46.87
73624;BME280;61921;53.226;-1.296;2023-07-29T12:25:57;99143.67;;;23.45;46.22
73624;BME280;61921;53.226;-1.296;2023-07-29T12:28:23;99136.03;;;23.90;47.00
73624;BME280;61921;53.226;-1.296;2023-07-29T12:30:48;99137.80;;;23.89;46.54
73624;BME280;61921;53.226;-1.296;2023-07-29T12:35:39;99134.87;;;23.98;44.06
73624;BME280;61921;53.226;-1.296;2023-07-29T12:38:06;99137.75;;;24.06;43.83
73624;BME280;61921;53.226;-1.296;2023-07-29T12:40:31;99132.16;;;24.53;44.13
73624;BME280;61921;53.226;-1.296;2023-07-29T12:42:57;99140.25;;;24.37;43.76
73624;BME280;61921;53.226;-1.296;2023-07-29T12:45:23;99141.47;;;23.80;45.62
73624;BME280;61921;53.226;-1.296;2023-07-29T12:47:48;99143.56;;;23.85;46.35